createdAt,value
2022-10-16T00:00:26.432Z,38.55
2022-10-16T00:05:31.889Z,36.63
2022-10-16T00:10:37.657Z,37.57
2022-10-16T00:15:45.308Z,27.00
2022-10-16T00:20:50.543Z,41.85
2022-10-16T00:25:59.889Z,35.50
2022-10-16T00:31:09.478Z,45.97
2022-10-16T00:36:16.850Z,38.92
2022-10-16T00:41:22.297Z,41.55
2022-10-16T00:46:27.476Z,26.87
2022-10-16T00:51:37.242Z,43.57
2022-10-16T00:56:43.016Z,36.03
2022-10-16T01:01:48.532Z,44.90
2022-10-16T01:07:00.143Z,45.38
2022-10-16T01:12:18.733Z,46.47
2022-10-16T01:17:32.831Z,39.90
2022-10-16T01:22:51.198Z,38.42
2022-10-16T01:27:57.017Z,22.85
2022-10-16T01:33:10.039Z,20.20
2022-10-16T01:38:19.070Z,29.35
2022-10-16T01:43:26.457Z,26.90
2022-10-16T01:48:33.025Z,34.42
2022-10-16T01:53:38.486Z,32.42
2022-10-16T01:58:56.514Z,20.83
2022-10-16T02:04:04.785Z,28.80
2022-10-16T02:09:11.057Z,22.67
2022-10-16T02:14:16.683Z,31.42
2022-10-16T02:19:23.183Z,20.27
2022-10-16T02:24:34.376Z,17.05
2022-10-16T02:29:42.527Z,25.95
2022-10-16T02:34:48.698Z,20.48
2022-10-16T02:44:58.767Z,19.48
2022-10-16T02:50:04.262Z,24.57
2022-10-16T02:55:09.517Z,29.08
2022-10-16T03:00:16.730Z,20.73
2022-10-16T03:10:31.970Z,19.40
2022-10-16T03:15:46.939Z,16.53
2022-10-16T03:20:54.630Z,20.73
2022-10-16T03:26:00.141Z,18.25
2022-10-16T03:31:05.674Z,19.02
2022-10-16T03:36:10.746Z,15.13
2022-10-16T03:41:16.149Z,15.57
2022-10-16T03:46:21.290Z,14.07
2022-10-16T03:51:26.807Z,17.80
2022-10-16T03:56:32.769Z,13.95
2022-10-16T04:01:37.873Z,14.45
2022-10-16T04:06:43.062Z,15.63
2022-10-16T04:11:48.582Z,15.23
2022-10-16T04:16:54.049Z,11.63
2022-10-16T04:21:59.539Z,10.27
2022-10-16T04:27:05.257Z,14.05
2022-10-16T04:37:15.257Z,15.25
2022-10-16T04:42:23.304Z,11.05
2022-10-16T04:47:28.928Z,12.73
2022-10-16T04:57:44.375Z,12.30
2022-10-16T05:02:49.800Z,11.23
2022-10-16T05:07:54.881Z,9.90
2022-10-16T05:13:00.055Z,11.33
2022-10-16T05:18:05.110Z,14.23
2022-10-16T05:28:39.275Z,11.00
2022-10-16T05:33:46.402Z,8.65
2022-10-16T05:38:56.788Z,11.27
2022-10-16T05:44:02.653Z,9.18
2022-10-16T05:49:08.649Z,8.30
2022-10-16T05:54:20.264Z,9.68
2022-10-16T05:59:25.884Z,6.72
2022-10-16T06:04:31.340Z,9.18
2022-10-16T06:09:39.503Z,13.50
2022-10-16T06:14:50.946Z,7.60
2022-10-16T06:19:58.856Z,9.27
2022-10-16T06:25:05.429Z,9.43
2022-10-16T06:30:11.233Z,9.23
2022-10-16T06:40:23.386Z,11.00
2022-10-16T06:45:28.885Z,10.90
2022-10-16T06:50:34.782Z,9.63
2022-10-16T06:55:40.325Z,8.38
2022-10-16T07:00:46.504Z,6.90
2022-10-16T07:05:54.912Z,11.18
2022-10-16T07:11:03.821Z,6.70
2022-10-16T07:16:09.729Z,11.82
2022-10-16T07:21:24.915Z,8.13
2022-10-16T07:26:32.478Z,8.63
2022-10-16T07:31:38.364Z,10.32
2022-10-16T07:36:43.969Z,9.95
2022-10-16T07:41:49.219Z,9.90
2022-10-16T07:46:54.732Z,11.10
2022-10-16T07:57:05.228Z,7.03
2022-10-16T08:02:11.055Z,12.75
2022-10-16T08:07:16.815Z,11.18
2022-10-16T08:12:22.214Z,13.23
2022-10-16T08:17:27.921Z,13.02
2022-10-16T08:22:33.704Z,13.32
2022-10-16T08:27:39.287Z,15.40
2022-10-16T08:32:45.001Z,13.48
2022-10-16T08:37:50.790Z,8.98
2022-10-16T08:43:14.136Z,10.93
2022-10-16T08:48:32.195Z,7.45
2022-10-16T08:53:42.564Z,14.10
2022-10-16T08:58:48.661Z,13.52
2022-10-16T09:04:06.790Z,13.35
2022-10-16T09:09:15.038Z,11.85
2022-10-16T09:14:23.240Z,12.85
2022-10-16T09:19:39.919Z,12.73
2022-10-16T09:24:45.244Z,14.02
2022-10-16T09:29:50.686Z,13.45
2022-10-16T09:34:58.649Z,12.98
2022-10-16T09:40:06.749Z,13.55
2022-10-16T09:45:24.213Z,11.38
2022-10-16T09:50:30.950Z,12.70
2022-10-16T09:55:37.757Z,15.23
2022-10-16T10:00:44.777Z,8.80
2022-10-16T10:05:56.211Z,16.85
2022-10-16T10:11:03.407Z,8.10
2022-10-16T10:16:08.715Z,11.93
2022-10-16T10:21:18.040Z,11.77
2022-10-16T10:26:27.898Z,12.68
2022-10-16T10:31:33.475Z,15.93
2022-10-16T10:36:43.077Z,13.98
2022-10-16T10:41:59.169Z,13.73
2022-10-16T10:47:10.371Z,9.63
2022-10-16T10:52:15.801Z,7.97
2022-10-16T10:57:24.145Z,15.05
2022-10-16T11:02:35.840Z,9.35
2022-10-16T11:07:48.728Z,20.13
2022-10-16T11:13:15.172Z,26.80
2022-10-16T11:18:29.202Z,17.55
2022-10-16T11:23:36.710Z,21.17
2022-10-16T11:28:58.244Z,22.40
2022-10-16T11:39:34.188Z,14.15
2022-10-16T11:45:01.114Z,13.77
2022-10-16T11:50:24.838Z,14.57
2022-10-16T11:55:33.782Z,15.25
2022-10-16T12:00:45.293Z,13.30
2022-10-16T12:06:01.969Z,20.38
2022-10-16T12:11:25.676Z,20.88
2022-10-16T12:16:32.378Z,16.15
2022-10-16T12:21:37.809Z,18.80
2022-10-16T12:26:56.510Z,34.80
2022-10-16T12:32:04.902Z,39.58
2022-10-16T12:37:19.196Z,30.35
2022-10-16T12:42:27.753Z,32.30
2022-10-16T12:47:36.970Z,32.20
2022-10-16T12:52:43.138Z,31.27
2022-10-16T12:57:59.763Z,37.97
2022-10-16T13:03:12.286Z,42.45
2022-10-16T13:08:30.199Z,38.85
2022-10-16T13:13:38.353Z,40.45
2022-10-16T13:18:46.589Z,38.92
2022-10-16T13:24:10.617Z,38.78
2022-10-16T13:29:17.399Z,41.10
2022-10-16T13:34:24.696Z,39.42
2022-10-16T13:39:32.135Z,42.47
2022-10-16T13:44:51.197Z,38.03
2022-10-16T13:50:12.789Z,35.30
2022-10-16T13:55:21.866Z,40.95
2022-10-16T14:00:32.474Z,38.63
2022-10-16T14:05:47.875Z,38.60
2022-10-16T14:11:03.391Z,38.38
2022-10-16T14:16:10.904Z,37.13
2022-10-16T14:21:17.442Z,34.13
2022-10-16T14:26:24.567Z,34.38
2022-10-16T14:36:57.770Z,29.88
2022-10-16T14:42:05.941Z,38.42
2022-10-16T14:47:17.378Z,38.25
2022-10-16T14:52:28.077Z,31.50
2022-10-16T14:57:38.547Z,37.88
2022-10-16T15:02:44.121Z,40.35
2022-10-16T15:07:49.689Z,41.25
2022-10-16T15:12:55.278Z,39.72
2022-10-16T15:18:06.791Z,38.60
2022-10-16T15:23:17.405Z,40.08
2022-10-16T15:28:23.565Z,38.45
2022-10-16T15:33:38.918Z,37.28
2022-10-16T15:44:03.472Z,41.72
2022-10-16T15:49:09.360Z,40.42
2022-10-16T15:54:17.934Z,40.35
2022-10-16T15:59:23.178Z,40.60
2022-10-16T16:04:44.764Z,37.45
2022-10-16T16:09:51.106Z,40.28
2022-10-16T16:14:58.166Z,36.20
2022-10-16T16:20:06.124Z,34.65
2022-10-16T16:25:11.959Z,28.38
2022-10-16T16:35:24.845Z,29.33
2022-10-16T16:40:30.072Z,32.17
2022-10-16T16:45:38.664Z,27.07
2022-10-16T16:50:43.740Z,22.25
2022-10-16T16:55:49.078Z,16.03
2022-10-16T17:00:57.014Z,18.50
2022-10-16T17:06:09.121Z,19.63
2022-10-16T17:11:18.591Z,15.30
2022-10-16T17:16:25.207Z,15.43
2022-10-16T17:21:31.962Z,14.25
2022-10-16T17:26:39.640Z,19.35
2022-10-16T17:31:45.153Z,14.38
2022-10-16T17:36:50.455Z,13.82
2022-10-16T17:41:56.029Z,19.48
2022-10-16T17:47:06.240Z,13.48
2022-10-16T17:52:11.472Z,11.15
2022-10-16T17:57:17.003Z,17.03
2022-10-16T18:02:22.466Z,14.95
2022-10-16T18:07:30.561Z,12.05
2022-10-16T18:12:36.115Z,11.73
2022-10-16T18:17:41.277Z,13.15
2022-10-16T18:22:49.603Z,11.80
2022-10-16T18:27:54.964Z,11.98
2022-10-16T18:33:00.470Z,6.05
2022-10-16T18:38:08.726Z,12.32
2022-10-16T18:43:14.236Z,8.73
2022-10-16T18:48:19.744Z,9.95
2022-10-16T18:53:24.915Z,9.00
2022-10-16T18:58:30.814Z,8.33
2022-10-16T19:03:36.729Z,10.00
2022-10-16T19:08:53.498Z,8.13
2022-10-16T19:13:59.249Z,6.75
2022-10-16T19:19:05.934Z,14.25
2022-10-16T19:24:13.645Z,9.38
2022-10-16T19:29:19.103Z,12.05
2022-10-16T19:34:24.281Z,7.97
2022-10-16T19:39:29.761Z,9.73
2022-10-16T19:44:34.865Z,10.80
2022-10-16T19:49:39.737Z,8.00
2022-10-16T19:54:44.937Z,8.73
2022-10-16T19:59:53.693Z,8.20
2022-10-16T20:04:58.886Z,12.45
2022-10-16T20:10:03.955Z,8.73
2022-10-16T20:15:09.488Z,11.00
2022-10-16T20:20:15.476Z,7.60
2022-10-16T20:25:20.913Z,12.65
2022-10-16T20:30:26.285Z,8.95
2022-10-16T20:35:31.657Z,8.80
2022-10-16T20:40:37.776Z,11.60
2022-10-16T20:45:43.466Z,12.75
2022-10-16T20:50:48.950Z,11.18
2022-10-16T20:55:54.550Z,12.10
2022-10-16T21:01:06.575Z,10.82
2022-10-16T21:06:14.833Z,13.87
2022-10-16T21:11:25.152Z,10.57
2022-10-16T21:16:31.049Z,14.23
2022-10-16T21:26:41.447Z,16.35
2022-10-16T21:31:46.621Z,10.30
2022-10-16T21:36:51.722Z,9.80
2022-10-16T21:41:56.758Z,10.90
2022-10-16T21:47:02.120Z,14.40
2022-10-16T21:52:07.410Z,10.37
2022-10-16T21:57:12.585Z,10.77
2022-10-16T22:02:17.970Z,12.98
2022-10-16T22:07:23.142Z,17.05
2022-10-16T22:12:28.242Z,14.17
2022-10-16T22:17:33.725Z,11.13
2022-10-16T22:22:39.161Z,9.60
2022-10-16T22:27:44.404Z,9.50
2022-10-16T22:32:50.067Z,11.45
2022-10-16T22:37:55.487Z,12.25
2022-10-16T22:43:00.729Z,9.80
2022-10-16T22:48:07.075Z,9.03
2022-10-16T22:53:12.549Z,8.75
2022-10-16T22:58:17.751Z,9.00
2022-10-16T23:03:23.513Z,11.02
2022-10-16T23:08:46.565Z,11.13
2022-10-16T23:13:51.955Z,10.07
2022-10-16T23:18:57.448Z,11.80
2022-10-16T23:24:02.828Z,13.23
2022-10-16T23:29:08.596Z,10.63
2022-10-16T23:39:34.893Z,11.63
2022-10-16T23:44:48.809Z,11.68
2022-10-16T23:49:54.559Z,8.35
